sensor_id;sensor_type;location;lat;lon;timestamp;P1;durP1;ratioP1;P2;durP2;ratioP2
43771;SDS011;59066;54.782;32.024;2023-05-10T00:02:12;7.05;;;3.92;;
43771;SDS011;59066;54.782;32.024;2023-05-10T00:04:40;9.63;;;4.70;;
43771;SDS011;59066;54.782;32.024;2023-05-10T00:07:07;7.30;;;4.45;;
43771;SDS011;59066;54.782;32.024;2023-05-10T00:09:35;7.88;;;3.97;;
43771;SDS011;59066;54.782;32.024;2023-05-10T00:12:02;5.72;;;3.83;;
43771;SDS011;59066;54.782;32.024;2023-05-10T00:14:30;7.90;;;3.65;;
43771;SDS011;59066;54.782;32.024;2023-05-10T00:16:58;5.88;;;3.67;;
43771;SDS011;59066;54.782;32.024;2023-05-10T00:19:25;6.38;;;3.83;;
43771;SDS011;59066;54.782;32.024;2023-05-10T00:21:53;8.50;;;3.63;;
43771;SDS011;59066;54.782;32.024;2023-05-10T00:24:20;6.65;;;3.53;;
43771;SDS011;59066;54.782;32.024;2023-05-10T00:26:48;6.43;;;3.83;;
43771;SDS011;59066;54.782;32.024;2023-05-10T00:29:15;5.88;;;3.90;;
43771;SDS011;59066;54.782;32.024;2023-05-10T00:31:43;6.75;;;3.80;;
43771;SDS011;59066;54.782;32.024;2023-05-10T00:34:11;5.82;;;4.25;;
43771;SDS011;59066;54.782;32.024;2023-05-10T00:36:38;7.35;;;3.78;;
43771;SDS011;59066;54.782;32.024;2023-05-10T00:39:06;6.95;;;4.13;;
43771;SDS011;59066;54.782;32.024;2023-05-10T00:41:34;6.43;;;3.78;;
43771;SDS011;59066;54.782;32.024;2023-05-10T00:44:04;9.93;;;4.82;;
43771;SDS011;59066;54.782;32.024;2023-05-10T00:46:32;7.80;;;4.30;;
43771;SDS011;59066;54.782;32.024;2023-05-10T00:49:00;7.10;;;4.03;;
43771;SDS011;59066;54.782;32.024;2023-05-10T00:51:28;6.90;;;3.80;;
43771;SDS011;59066;54.782;32.024;2023-05-10T00:53:56;7.80;;;4.10;;
43771;SDS011;59066;54.782;32.024;2023-05-10T00:56:24;6.18;;;3.70;;
43771;SDS011;59066;54.782;32.024;2023-05-10T00:58:52;6.25;;;3.88;;
43771;SDS011;59066;54.782;32.024;2023-05-10T01:01:20;6.78;;;3.67;;
43771;SDS011;59066;54.782;32.024;2023-05-10T01:03:48;7.88;;;3.67;;
43771;SDS011;59066;54.782;32.024;2023-05-10T01:06:15;5.32;;;3.80;;
43771;SDS011;59066;54.782;32.024;2023-05-10T01:08:43;6.15;;;3.50;;
43771;SDS011;59066;54.782;32.024;2023-05-10T01:11:11;5.93;;;3.75;;
43771;SDS011;59066;54.782;32.024;2023-05-10T01:13:39;6.15;;;4.22;;
43771;SDS011;59066;54.782;32.024;2023-05-10T01:16:09;8.43;;;4.35;;
43771;SDS011;59066;54.782;32.024;2023-05-10T01:18:38;7.03;;;3.72;;
43771;SDS011;59066;54.782;32.024;2023-05-10T01:40:39;13.43;;;5.68;;
43771;SDS011;59066;54.782;32.024;2023-05-10T01:43:28;9.90;;;5.38;;
43771;SDS011;59066;54.782;32.024;2023-05-10T01:46:09;11.48;;;6.20;;
43771;SDS011;59066;54.782;32.024;2023-05-10T01:48:51;7.35;;;5.72;;
43771;SDS011;59066;54.782;32.024;2023-05-10T01:51:24;9.82;;;5.10;;
43771;SDS011;59066;54.782;32.024;2023-05-10T01:54:00;11.60;;;5.60;;
43771;SDS011;59066;54.782;32.024;2023-05-10T01:56:29;9.60;;;6.30;;
43771;SDS011;59066;54.782;32.024;2023-05-10T01:59:00;17.45;;;6.80;;
43771;SDS011;59066;54.782;32.024;2023-05-10T02:01:32;13.70;;;6.20;;
43771;SDS011;59066;54.782;32.024;2023-05-10T02:04:01;12.23;;;5.57;;
43771;SDS011;59066;54.782;32.024;2023-05-10T02:06:29;10.18;;;6.10;;
43771;SDS011;59066;54.782;32.024;2023-05-10T02:09:00;9.60;;;5.07;;
43771;SDS011;59066;54.782;32.024;2023-05-10T02:11:29;13.38;;;6.10;;
43771;SDS011;59066;54.782;32.024;2023-05-10T02:13:58;13.13;;;5.93;;
43771;SDS011;59066;54.782;32.024;2023-05-10T02:16:28;14.93;;;6.13;;
43771;SDS011;59066;54.782;32.024;2023-05-10T02:18:58;14.25;;;5.75;;
43771;SDS011;59066;54.782;32.024;2023-05-10T02:21:29;10.95;;;6.18;;
43771;SDS011;59066;54.782;32.024;2023-05-10T02:23:57;7.85;;;5.55;;
43771;SDS011;59066;54.782;32.024;2023-05-10T02:26:28;9.00;;;4.88;;
43771;SDS011;59066;54.782;32.024;2023-05-10T02:28:56;7.97;;;4.90;;
43771;SDS011;59066;54.782;32.024;2023-05-10T02:31:26;10.00;;;4.63;;
43771;SDS011;59066;54.782;32.024;2023-05-10T02:33:54;9.43;;;5.68;;
43771;SDS011;59066;54.782;32.024;2023-05-10T02:36:24;7.95;;;5.53;;
43771;SDS011;59066;54.782;32.024;2023-05-10T02:38:54;9.55;;;5.22;;
43771;SDS011;59066;54.782;32.024;2023-05-10T02:41:22;15.15;;;5.40;;
43771;SDS011;59066;54.782;32.024;2023-05-10T02:43:53;8.38;;;4.65;;
43771;SDS011;59066;54.782;32.024;2023-05-10T02:46:24;8.68;;;4.38;;
43771;SDS011;59066;54.782;32.024;2023-05-10T02:48:51;9.38;;;4.70;;
43771;SDS011;59066;54.782;32.024;2023-05-10T02:51:19;11.15;;;5.30;;
43771;SDS011;59066;54.782;32.024;2023-05-10T02:53:51;9.02;;;4.65;;
43771;SDS011;59066;54.782;32.024;2023-05-10T02:56:24;6.15;;;4.10;;
43771;SDS011;59066;54.782;32.024;2023-05-10T02:58:55;11.68;;;5.28;;
43771;SDS011;59066;54.782;32.024;2023-05-10T03:01:23;13.73;;;6.18;;
43771;SDS011;59066;54.782;32.024;2023-05-10T03:03:51;10.95;;;5.55;;
43771;SDS011;59066;54.782;32.024;2023-05-10T03:06:18;8.35;;;5.03;;
43771;SDS011;59066;54.782;32.024;2023-05-10T03:08:46;7.20;;;4.47;;
43771;SDS011;59066;54.782;32.024;2023-05-10T03:16:50;9.70;;;5.65;;
43771;SDS011;59066;54.782;32.024;2023-05-10T03:19:26;9.32;;;4.93;;
43771;SDS011;59066;54.782;32.024;2023-05-10T03:21:59;11.82;;;5.65;;
43771;SDS011;59066;54.782;32.024;2023-05-10T03:24:33;12.02;;;6.35;;
43771;SDS011;59066;54.782;32.024;2023-05-10T03:27:03;13.00;;;6.38;;
43771;SDS011;59066;54.782;32.024;2023-05-10T03:29:32;9.05;;;4.93;;
43771;SDS011;59066;54.782;32.024;2023-05-10T03:32:01;9.82;;;6.03;;
43771;SDS011;59066;54.782;32.024;2023-05-10T03:34:30;11.10;;;6.00;;
43771;SDS011;59066;54.782;32.024;2023-05-10T03:36:58;12.80;;;6.63;;
43771;SDS011;59066;54.782;32.024;2023-05-10T03:39:29;9.38;;;6.30;;
43771;SDS011;59066;54.782;32.024;2023-05-10T03:41:58;11.93;;;7.30;;
43771;SDS011;59066;54.782;32.024;2023-05-10T03:44:26;12.00;;;8.40;;
43771;SDS011;59066;54.782;32.024;2023-05-10T03:46:53;15.30;;;9.23;;
43771;SDS011;59066;54.782;32.024;2023-05-10T03:49:21;22.48;;;10.57;;
43771;SDS011;59066;54.782;32.024;2023-05-10T03:51:49;18.60;;;12.65;;
43771;SDS011;59066;54.782;32.024;2023-05-10T03:54:16;24.77;;;16.02;;
43771;SDS011;59066;54.782;32.024;2023-05-10T03:56:45;24.58;;;14.80;;
43771;SDS011;59066;54.782;32.024;2023-05-10T03:59:16;23.02;;;15.20;;
43771;SDS011;59066;54.782;32.024;2023-05-10T04:01:43;19.50;;;13.40;;
43771;SDS011;59066;54.782;32.024;2023-05-10T04:04:11;22.13;;;14.18;;
43771;SDS011;59066;54.782;32.024;2023-05-10T04:06:39;18.35;;;14.07;;
43771;SDS011;59066;54.782;32.024;2023-05-10T04:09:06;19.35;;;14.27;;
43771;SDS011;59066;54.782;32.024;2023-05-10T04:11:35;24.15;;;15.80;;
43771;SDS011;59066;54.782;32.024;2023-05-10T04:14:02;21.38;;;11.38;;
43771;SDS011;59066;54.782;32.024;2023-05-10T04:16:30;19.77;;;11.05;;
43771;SDS011;59066;54.782;32.024;2023-05-10T04:18:58;20.95;;;12.18;;
43771;SDS011;59066;54.782;32.024;2023-05-10T04:21:26;24.83;;;13.10;;
43771;SDS011;59066;54.782;32.024;2023-05-10T04:23:54;22.52;;;12.40;;
43771;SDS011;59066;54.782;32.024;2023-05-10T04:26:21;15.07;;;9.20;;
43771;SDS011;59066;54.782;32.024;2023-05-10T04:28:49;14.75;;;9.77;;
43771;SDS011;59066;54.782;32.024;2023-05-10T04:31:16;14.00;;;8.55;;
43771;SDS011;59066;54.782;32.024;2023-05-10T04:33:44;13.82;;;7.43;;
43771;SDS011;59066;54.782;32.024;2023-05-10T04:36:11;14.05;;;6.82;;
43771;SDS011;59066;54.782;32.024;2023-05-10T04:38:39;9.75;;;6.30;;
43771;SDS011;59066;54.782;32.024;2023-05-10T04:41:07;15.95;;;9.25;;
43771;SDS011;59066;54.782;32.024;2023-05-10T04:43:36;16.25;;;7.70;;
43771;SDS011;59066;54.782;32.024;2023-05-10T04:46:05;16.50;;;8.63;;
43771;SDS011;59066;54.782;32.024;2023-05-10T04:48:32;15.55;;;7.43;;
43771;SDS011;59066;54.782;32.024;2023-05-10T04:51:00;18.25;;;9.00;;
43771;SDS011;59066;54.782;32.024;2023-05-10T04:53:28;14.98;;;7.60;;
43771;SDS011;59066;54.782;32.024;2023-05-10T04:55:55;18.20;;;9.60;;
43771;SDS011;59066;54.782;32.024;2023-05-10T04:58:23;15.77;;;8.73;;
43771;SDS011;59066;54.782;32.024;2023-05-10T05:00:51;12.02;;;7.30;;
43771;SDS011;59066;54.782;32.024;2023-05-10T05:03:18;14.60;;;6.20;;
43771;SDS011;59066;54.782;32.024;2023-05-10T05:05:46;9.02;;;5.80;;
43771;SDS011;59066;54.782;32.024;2023-05-10T05:08:13;11.48;;;5.82;;
43771;SDS011;59066;54.782;32.024;2023-05-10T05:10:41;9.52;;;5.75;;
43771;SDS011;59066;54.782;32.024;2023-05-10T05:13:08;9.73;;;5.20;;
43771;SDS011;59066;54.782;32.024;2023-05-10T05:15:36;10.80;;;5.55;;
43771;SDS011;59066;54.782;32.024;2023-05-10T05:18:04;9.32;;;5.38;;
43771;SDS011;59066;54.782;32.024;2023-05-10T05:20:32;13.18;;;6.35;;
43771;SDS011;59066;54.782;32.024;2023-05-10T05:23:01;10.20;;;4.90;;
43771;SDS011;59066;54.782;32.024;2023-05-10T05:25:28;12.02;;;5.57;;
43771;SDS011;59066;54.782;32.024;2023-05-10T05:27:56;7.80;;;5.03;;
43771;SDS011;59066;54.782;32.024;2023-05-10T05:30:23;16.02;;;4.70;;
43771;SDS011;59066;54.782;32.024;2023-05-10T05:32:51;9.43;;;5.03;;
43771;SDS011;59066;54.782;32.024;2023-05-10T05:35:19;11.23;;;4.82;;
43771;SDS011;59066;54.782;32.024;2023-05-10T05:37:46;9.98;;;5.30;;
43771;SDS011;59066;54.782;32.024;2023-05-10T05:40:14;9.38;;;5.03;;
43771;SDS011;59066;54.782;32.024;2023-05-10T05:42:42;9.35;;;5.00;;
43771;SDS011;59066;54.782;32.024;2023-05-10T05:45:09;13.93;;;5.75;;
43771;SDS011;59066;54.782;32.024;2023-05-10T05:47:39;9.15;;;4.80;;
43771;SDS011;59066;54.782;32.024;2023-05-10T05:50:07;12.10;;;5.10;;
43771;SDS011;59066;54.782;32.024;2023-05-10T05:52:35;14.07;;;5.97;;
43771;SDS011;59066;54.782;32.024;2023-05-10T05:55:03;12.27;;;6.03;;
43771;SDS011;59066;54.782;32.024;2023-05-10T05:57:31;10.00;;;5.28;;
43771;SDS011;59066;54.782;32.024;2023-05-10T06:00:00;11.98;;;5.00;;
43771;SDS011;59066;54.782;32.024;2023-05-10T06:02:37;20.02;;;6.13;;
43771;SDS011;59066;54.782;32.024;2023-05-10T06:05:08;15.07;;;4.97;;
43771;SDS011;59066;54.782;32.024;2023-05-10T06:07:36;11.45;;;5.50;;
43771;SDS011;59066;54.782;32.024;2023-05-10T06:10:03;12.85;;;4.55;;
43771;SDS011;59066;54.782;32.024;2023-05-10T06:12:32;8.00;;;3.65;;
43771;SDS011;59066;54.782;32.024;2023-05-10T06:15:00;8.10;;;4.22;;
43771;SDS011;59066;54.782;32.024;2023-05-10T06:17:29;6.55;;;4.28;;
43771;SDS011;59066;54.782;32.024;2023-05-10T06:19:57;14.68;;;4.70;;
43771;SDS011;59066;54.782;32.024;2023-05-10T06:22:24;9.65;;;4.50;;
43771;SDS011;59066;54.782;32.024;2023-05-10T06:24:52;10.45;;;4.43;;
43771;SDS011;59066;54.782;32.024;2023-05-10T06:27:19;12.57;;;5.07;;
43771;SDS011;59066;54.782;32.024;2023-05-10T06:29:47;8.13;;;4.82;;
43771;SDS011;59066;54.782;32.024;2023-05-10T06:32:17;7.95;;;5.78;;
43771;SDS011;59066;54.782;32.024;2023-05-10T06:34:45;9.38;;;6.90;;
43771;SDS011;59066;54.782;32.024;2023-05-10T06:37:13;14.40;;;7.80;;
43771;SDS011;59066;54.782;32.024;2023-05-10T06:39:40;16.65;;;9.07;;
43771;SDS011;59066;54.782;32.024;2023-05-10T06:42:08;18.63;;;11.52;;
43771;SDS011;59066;54.782;32.024;2023-05-10T06:44:35;11.50;;;7.90;;
43771;SDS011;59066;54.782;32.024;2023-05-10T06:47:03;8.18;;;6.07;;
43771;SDS011;59066;54.782;32.024;2023-05-10T06:49:31;11.90;;;9.10;;
43771;SDS011;59066;54.782;32.024;2023-05-10T06:51:58;9.90;;;6.75;;
43771;SDS011;59066;54.782;32.024;2023-05-10T06:54:26;10.20;;;6.32;;
43771;SDS011;59066;54.782;32.024;2023-05-10T06:56:54;9.38;;;7.13;;
43771;SDS011;59066;54.782;32.024;2023-05-10T06:59:21;15.98;;;9.95;;
43771;SDS011;59066;54.782;32.024;2023-05-10T07:01:49;16.20;;;8.40;;
43771;SDS011;59066;54.782;32.024;2023-05-10T07:04:17;6.90;;;4.75;;
43771;SDS011;59066;54.782;32.024;2023-05-10T07:06:44;14.68;;;8.45;;
43771;SDS011;59066;54.782;32.024;2023-05-10T07:09:13;9.07;;;6.50;;
43771;SDS011;59066;54.782;32.024;2023-05-10T07:11:41;9.95;;;6.75;;
43771;SDS011;59066;54.782;32.024;2023-05-10T07:14:08;12.45;;;6.85;;
43771;SDS011;59066;54.782;32.024;2023-05-10T07:16:36;10.68;;;7.25;;
43771;SDS011;59066;54.782;32.024;2023-05-10T07:19:04;9.80;;;6.75;;
43771;SDS011;59066;54.782;32.024;2023-05-10T07:21:32;9.07;;;5.80;;
43771;SDS011;59066;54.782;32.024;2023-05-10T07:23:59;6.28;;;3.22;;
43771;SDS011;59066;54.782;32.024;2023-05-10T07:26:27;5.65;;;3.25;;
43771;SDS011;59066;54.782;32.024;2023-05-10T07:28:55;4.85;;;2.50;;
43771;SDS011;59066;54.782;32.024;2023-05-10T07:31:23;6.35;;;3.85;;
43771;SDS011;59066;54.782;32.024;2023-05-10T07:33:50;3.75;;;2.03;;
43771;SDS011;59066;54.782;32.024;2023-05-10T07:36:18;6.70;;;2.63;;
43771;SDS011;59066;54.782;32.024;2023-05-10T07:38:46;4.90;;;2.20;;
43771;SDS011;59066;54.782;32.024;2023-05-10T07:41:13;4.53;;;2.15;;
43771;SDS011;59066;54.782;32.024;2023-05-10T07:43:41;10.63;;;2.78;;
43771;SDS011;59066;54.782;32.024;2023-05-10T07:46:08;7.15;;;2.83;;
43771;SDS011;59066;54.782;32.024;2023-05-10T07:48:37;5.63;;;2.58;;
43771;SDS011;59066;54.782;32.024;2023-05-10T07:51:04;9.38;;;3.35;;
43771;SDS011;59066;54.782;32.024;2023-05-10T07:53:34;3.70;;;2.15;;
43771;SDS011;59066;54.782;32.024;2023-05-10T07:58:56;4.45;;;2.50;;
43771;SDS011;59066;54.782;32.024;2023-05-10T08:01:25;6.50;;;2.65;;
43771;SDS011;59066;54.782;32.024;2023-05-10T08:03:53;4.75;;;2.55;;
43771;SDS011;59066;54.782;32.024;2023-05-10T08:06:21;14.63;;;3.78;;
43771;SDS011;59066;54.782;32.024;2023-05-10T08:08:49;10.05;;;2.38;;
43771;SDS011;59066;54.782;32.024;2023-05-10T08:11:17;7.68;;;2.38;;
43771;SDS011;59066;54.782;32.024;2023-05-10T08:13:45;6.03;;;2.75;;
43771;SDS011;59066;54.782;32.024;2023-05-10T08:16:14;10.27;;;2.53;;
43771;SDS011;59066;54.782;32.024;2023-05-10T08:18:43;4.53;;;2.20;;
43771;SDS011;59066;54.782;32.024;2023-05-10T08:21:12;5.53;;;2.50;;
43771;SDS011;59066;54.782;32.024;2023-05-10T08:23:41;5.03;;;2.75;;
43771;SDS011;59066;54.782;32.024;2023-05-10T08:26:10;5.93;;;2.75;;
43771;SDS011;59066;54.782;32.024;2023-05-10T08:28:38;9.43;;;3.42;;
43771;SDS011;59066;54.782;32.024;2023-05-10T08:31:06;9.32;;;3.25;;
43771;SDS011;59066;54.782;32.024;2023-05-10T08:33:33;7.43;;;2.47;;
43771;SDS011;59066;54.782;32.024;2023-05-10T08:36:01;4.30;;;2.05;;
43771;SDS011;59066;54.782;32.024;2023-05-10T08:38:29;3.83;;;2.30;;
43771;SDS011;59066;54.782;32.024;2023-05-10T08:40:56;4.75;;;2.65;;
43771;SDS011;59066;54.782;32.024;2023-05-10T08:43:26;5.20;;;2.45;;
43771;SDS011;59066;54.782;32.024;2023-05-10T08:45:59;3.67;;;2.33;;
43771;SDS011;59066;54.782;32.024;2023-05-10T08:48:31;5.45;;;2.15;;
43771;SDS011;59066;54.782;32.024;2023-05-10T08:51:01;5.30;;;2.33;;
43771;SDS011;59066;54.782;32.024;2023-05-10T08:53:30;4.68;;;2.22;;
43771;SDS011;59066;54.782;32.024;2023-05-10T08:56:02;10.45;;;6.38;;
43771;SDS011;59066;54.782;32.024;2023-05-10T08:58:31;10.13;;;2.88;;
43771;SDS011;59066;54.782;32.024;2023-05-10T09:00:59;8.32;;;2.80;;
43771;SDS011;59066;54.782;32.024;2023-05-10T09:03:27;8.00;;;2.97;;
43771;SDS011;59066;54.782;32.024;2023-05-10T09:05:55;11.13;;;3.83;;
43771;SDS011;59066;54.782;32.024;2023-05-10T09:08:25;7.63;;;2.83;;
43771;SDS011;59066;54.782;32.024;2023-05-10T09:10:56;3.67;;;1.95;;
43771;SDS011;59066;54.782;32.024;2023-05-10T09:13:24;5.70;;;2.60;;
43771;SDS011;59066;54.782;32.024;2023-05-10T09:15:53;8.40;;;3.15;;
43771;SDS011;59066;54.782;32.024;2023-05-10T09:18:21;9.38;;;3.10;;
43771;SDS011;59066;54.782;32.024;2023-05-10T09:20:48;8.07;;;2.88;;
43771;SDS011;59066;54.782;32.024;2023-05-10T09:23:16;9.07;;;2.80;;
43771;SDS011;59066;54.782;32.024;2023-05-10T09:25:43;5.68;;;2.65;;
43771;SDS011;59066;54.782;32.024;2023-05-10T09:28:11;5.88;;;2.45;;
43771;SDS011;59066;54.782;32.024;2023-05-10T09:30:39;8.18;;;3.00;;
43771;SDS011;59066;54.782;32.024;2023-05-10T09:33:07;3.47;;;2.22;;
43771;SDS011;59066;54.782;32.024;2023-05-10T09:35:34;5.43;;;2.35;;
43771;SDS011;59066;54.782;32.024;2023-05-10T09:38:04;5.80;;;2.50;;
43771;SDS011;59066;54.782;32.024;2023-05-10T09:40:32;4.85;;;2.30;;
43771;SDS011;59066;54.782;32.024;2023-05-10T09:43:00;8.52;;;4.47;;
43771;SDS011;59066;54.782;32.024;2023-05-10T09:45:30;6.43;;;3.80;;
43771;SDS011;59066;54.782;32.024;2023-05-10T09:48:02;8.18;;;3.30;;
43771;SDS011;59066;54.782;32.024;2023-05-10T09:50:30;8.38;;;2.70;;
43771;SDS011;59066;54.782;32.024;2023-05-10T09:52:59;6.63;;;2.85;;
43771;SDS011;59066;54.782;32.024;2023-05-10T09:55:43;3.42;;;2.65;;
43771;SDS011;59066;54.782;32.024;2023-05-10T09:58:13;8.77;;;3.08;;
43771;SDS011;59066;54.782;32.024;2023-05-10T10:00:44;3.35;;;2.10;;
43771;SDS011;59066;54.782;32.024;2023-05-10T10:03:15;12.10;;;3.17;;
43771;SDS011;59066;54.782;32.024;2023-05-10T10:05:44;4.65;;;2.03;;
43771;SDS011;59066;54.782;32.024;2023-05-10T10:08:14;6.50;;;2.20;;
43771;SDS011;59066;54.782;32.024;2023-05-10T10:10:42;7.78;;;2.50;;
43771;SDS011;59066;54.782;32.024;2023-05-10T10:13:13;3.95;;;2.22;;
43771;SDS011;59066;54.782;32.024;2023-05-10T10:15:42;7.95;;;2.67;;
43771;SDS011;59066;54.782;32.024;2023-05-10T10:18:14;7.32;;;3.00;;
43771;SDS011;59066;54.782;32.024;2023-05-10T10:20:42;5.60;;;2.58;;
43771;SDS011;59066;54.782;32.024;2023-05-10T10:23:10;5.90;;;2.70;;
43771;SDS011;59066;54.782;32.024;2023-05-10T10:25:38;4.47;;;2.38;;
43771;SDS011;59066;54.782;32.024;2023-05-10T10:34:09;7.68;;;2.78;;
43771;SDS011;59066;54.782;32.024;2023-05-10T10:36:45;16.67;;;4.03;;
43771;SDS011;59066;54.782;32.024;2023-05-10T10:39:13;7.40;;;3.85;;
43771;SDS011;59066;54.782;32.024;2023-05-10T10:41:52;7.18;;;2.35;;
43771;SDS011;59066;54.782;32.024;2023-05-10T10:49:29;13.70;;;4.22;;
43771;SDS011;59066;54.782;32.024;2023-05-10T11:00:27;6.90;;;2.13;;
43771;SDS011;59066;54.782;32.024;2023-05-10T11:02:59;8.00;;;2.53;;
43771;SDS011;59066;54.782;32.024;2023-05-10T11:05:41;6.32;;;3.05;;
43771;SDS011;59066;54.782;32.024;2023-05-10T11:08:14;3.95;;;2.03;;
43771;SDS011;59066;54.782;32.024;2023-05-10T11:13:40;5.00;;;2.58;;
43771;SDS011;59066;54.782;32.024;2023-05-10T11:16:19;4.10;;;1.90;;
43771;SDS011;59066;54.782;32.024;2023-05-10T11:21:21;4.28;;;2.03;;
43771;SDS011;59066;54.782;32.024;2023-05-10T11:23:53;5.38;;;2.47;;
43771;SDS011;59066;54.782;32.024;2023-05-10T11:26:34;7.20;;;3.55;;
43771;SDS011;59066;54.782;32.024;2023-05-10T11:29:02;4.57;;;2.25;;
43771;SDS011;59066;54.782;32.024;2023-05-10T11:31:31;8.95;;;4.68;;
43771;SDS011;59066;54.782;32.024;2023-05-10T11:34:00;6.93;;;3.50;;
43771;SDS011;59066;54.782;32.024;2023-05-10T11:36:34;8.20;;;2.78;;
43771;SDS011;59066;54.782;32.024;2023-05-10T11:39:03;6.18;;;4.93;;
43771;SDS011;59066;54.782;32.024;2023-05-10T11:41:31;10.15;;;5.55;;
43771;SDS011;59066;54.782;32.024;2023-05-10T11:43:59;7.18;;;3.05;;
43771;SDS011;59066;54.782;32.024;2023-05-10T11:46:27;6.30;;;2.80;;
43771;SDS011;59066;54.782;32.024;2023-05-10T11:48:57;5.10;;;2.33;;
43771;SDS011;59066;54.782;32.024;2023-05-10T11:51:28;4.28;;;2.65;;
43771;SDS011;59066;54.782;32.024;2023-05-10T11:53:56;4.63;;;2.40;;
43771;SDS011;59066;54.782;32.024;2023-05-10T11:56:24;4.32;;;2.13;;
43771;SDS011;59066;54.782;32.024;2023-05-10T11:58:54;5.55;;;2.50;;
43771;SDS011;59066;54.782;32.024;2023-05-10T12:01:23;8.10;;;2.50;;
43771;SDS011;59066;54.782;32.024;2023-05-10T12:03:52;5.47;;;2.85;;
43771;SDS011;59066;54.782;32.024;2023-05-10T12:06:21;12.88;;;10.05;;
43771;SDS011;59066;54.782;32.024;2023-05-10T12:08:53;3.53;;;2.20;;
43771;SDS011;59066;54.782;32.024;2023-05-10T12:11:23;5.38;;;2.78;;
43771;SDS011;59066;54.782;32.024;2023-05-10T12:13:52;6.57;;;2.33;;
43771;SDS011;59066;54.782;32.024;2023-05-10T12:16:21;4.88;;;2.30;;
43771;SDS011;59066;54.782;32.024;2023-05-10T12:18:51;5.03;;;2.10;;
43771;SDS011;59066;54.782;32.024;2023-05-10T12:21:22;10.55;;;4.85;;
43771;SDS011;59066;54.782;32.024;2023-05-10T12:23:51;5.72;;;2.80;;
43771;SDS011;59066;54.782;32.024;2023-05-10T12:26:23;3.22;;;2.33;;
43771;SDS011;59066;54.782;32.024;2023-05-10T12:29:12;2.35;;;1.92;;
43771;SDS011;59066;54.782;32.024;2023-05-10T12:31:54;3.42;;;2.03;;
43771;SDS011;59066;54.782;32.024;2023-05-10T12:36:52;6.20;;;2.10;;
43771;SDS011;59066;54.782;32.024;2023-05-10T12:39:20;4.25;;;2.58;;
43771;SDS011;59066;54.782;32.024;2023-05-10T12:41:48;3.60;;;2.30;;
43771;SDS011;59066;54.782;32.024;2023-05-10T12:44:15;6.43;;;2.33;;
43771;SDS011;59066;54.782;32.024;2023-05-10T12:46:44;6.90;;;2.25;;
43771;SDS011;59066;54.782;32.024;2023-05-10T12:49:11;7.65;;;2.85;;
43771;SDS011;59066;54.782;32.024;2023-05-10T12:51:39;5.68;;;2.10;;
43771;SDS011;59066;54.782;32.024;2023-05-10T12:54:06;6.18;;;2.47;;
43771;SDS011;59066;54.782;32.024;2023-05-10T12:56:34;9.32;;;3.38;;
43771;SDS011;59066;54.782;32.024;2023-05-10T12:59:01;5.30;;;2.83;;
43771;SDS011;59066;54.782;32.024;2023-05-10T13:01:29;5.05;;;2.83;;
43771;SDS011;59066;54.782;32.024;2023-05-10T13:03:56;3.50;;;1.95;;
43771;SDS011;59066;54.782;32.024;2023-05-10T13:06:24;8.57;;;3.03;;
43771;SDS011;59066;54.782;32.024;2023-05-10T13:08:51;2.65;;;1.98;;
43771;SDS011;59066;54.782;32.024;2023-05-10T13:11:19;5.07;;;2.10;;
43771;SDS011;59066;54.782;32.024;2023-05-10T13:13:48;4.68;;;1.80;;
43771;SDS011;59066;54.782;32.024;2023-05-10T13:16:15;8.25;;;6.85;;
43771;SDS011;59066;54.782;32.024;2023-05-10T13:18:43;6.50;;;2.63;;
43771;SDS011;59066;54.782;32.024;2023-05-10T13:21:11;6.43;;;2.25;;
43771;SDS011;59066;54.782;32.024;2023-05-10T13:23:38;3.83;;;2.22;;
43771;SDS011;59066;54.782;32.024;2023-05-10T13:26:06;5.15;;;2.20;;
43771;SDS011;59066;54.782;32.024;2023-05-10T13:28:33;4.38;;;2.03;;
43771;SDS011;59066;54.782;32.024;2023-05-10T13:31:01;5.70;;;2.33;;
43771;SDS011;59066;54.782;32.024;2023-05-10T13:33:29;10.65;;;2.42;;
43771;SDS011;59066;54.782;32.024;2023-05-10T13:35:56;6.45;;;2.50;;
43771;SDS011;59066;54.782;32.024;2023-05-10T13:38:24;3.75;;;2.40;;
43771;SDS011;59066;54.782;32.024;2023-05-10T13:40:51;6.22;;;2.22;;
43771;SDS011;59066;54.782;32.024;2023-05-10T13:43:19;6.93;;;2.60;;
43771;SDS011;59066;54.782;32.024;2023-05-10T13:45:47;5.72;;;2.72;;
43771;SDS011;59066;54.782;32.024;2023-05-10T13:48:14;5.35;;;2.33;;
43771;SDS011;59066;54.782;32.024;2023-05-10T13:50:42;5.70;;;3.22;;
43771;SDS011;59066;54.782;32.024;2023-05-10T13:53:10;3.13;;;2.22;;
43771;SDS011;59066;54.782;32.024;2023-05-10T13:55:38;3.20;;;2.20;;
43771;SDS011;59066;54.782;32.024;2023-05-10T13:58:05;4.10;;;2.13;;
43771;SDS011;59066;54.782;32.024;2023-05-10T14:00:32;5.88;;;3.00;;
43771;SDS011;59066;54.782;32.024;2023-05-10T14:03:00;5.32;;;2.25;;
43771;SDS011;59066;54.782;32.024;2023-05-10T14:05:28;7.07;;;2.40;;
43771;SDS011;59066;54.782;32.024;2023-05-10T14:07:55;5.18;;;2.28;;
43771;SDS011;59066;54.782;32.024;2023-05-10T14:10:24;4.88;;;2.40;;
43771;SDS011;59066;54.782;32.024;2023-05-10T14:12:51;7.22;;;2.53;;
43771;SDS011;59066;54.782;32.024;2023-05-10T14:15:19;5.70;;;2.45;;
43771;SDS011;59066;54.782;32.024;2023-05-10T14:17:47;4.10;;;2.60;;
43771;SDS011;59066;54.782;32.024;2023-05-10T14:20:14;4.28;;;2.75;;
43771;SDS011;59066;54.782;32.024;2023-05-10T14:22:42;5.40;;;2.35;;
43771;SDS011;59066;54.782;32.024;2023-05-10T14:25:09;8.38;;;2.65;;
43771;SDS011;59066;54.782;32.024;2023-05-10T14:27:37;5.55;;;2.50;;
43771;SDS011;59066;54.782;32.024;2023-05-10T14:30:05;5.88;;;3.17;;
43771;SDS011;59066;54.782;32.024;2023-05-10T14:32:33;7.32;;;3.00;;
43771;SDS011;59066;54.782;32.024;2023-05-10T14:35:01;8.85;;;2.85;;
43771;SDS011;59066;54.782;32.024;2023-05-10T14:37:28;5.20;;;2.75;;
43771;SDS011;59066;54.782;32.024;2023-05-10T14:39:56;6.47;;;2.85;;
43771;SDS011;59066;54.782;32.024;2023-05-10T14:42:24;8.02;;;3.13;;
43771;SDS011;59066;54.782;32.024;2023-05-10T14:44:52;7.97;;;2.70;;
43771;SDS011;59066;54.782;32.024;2023-05-10T14:47:19;10.95;;;3.30;;
43771;SDS011;59066;54.782;32.024;2023-05-10T14:49:47;4.70;;;2.40;;
43771;SDS011;59066;54.782;32.024;2023-05-10T14:52:14;4.18;;;2.28;;
43771;SDS011;59066;54.782;32.024;2023-05-10T14:54:42;7.35;;;2.50;;
43771;SDS011;59066;54.782;32.024;2023-05-10T14:57:09;6.18;;;2.38;;
43771;SDS011;59066;54.782;32.024;2023-05-10T14:59:37;6.32;;;2.50;;
43771;SDS011;59066;54.782;32.024;2023-05-10T15:02:05;4.90;;;2.45;;
43771;SDS011;59066;54.782;32.024;2023-05-10T15:04:35;5.97;;;2.80;;
43771;SDS011;59066;54.782;32.024;2023-05-10T15:07:02;7.18;;;3.00;;
43771;SDS011;59066;54.782;32.024;2023-05-10T15:09:30;11.70;;;2.83;;
43771;SDS011;59066;54.782;32.024;2023-05-10T15:11:58;6.85;;;4.15;;
43771;SDS011;59066;54.782;32.024;2023-05-10T15:14:26;5.18;;;3.53;;
43771;SDS011;59066;54.782;32.024;2023-05-10T15:16:54;18.45;;;14.70;;
43771;SDS011;59066;54.782;32.024;2023-05-10T15:19:21;12.27;;;4.32;;
43771;SDS011;59066;54.782;32.024;2023-05-10T15:21:49;4.50;;;2.65;;
43771;SDS011;59066;54.782;32.024;2023-05-10T15:24:16;7.63;;;2.95;;
43771;SDS011;59066;54.782;32.024;2023-05-10T15:26:44;5.43;;;2.90;;
43771;SDS011;59066;54.782;32.024;2023-05-10T15:29:12;7.13;;;3.60;;
43771;SDS011;59066;54.782;32.024;2023-05-10T15:31:47;6.60;;;2.88;;
43771;SDS011;59066;54.782;32.024;2023-05-10T15:34:15;9.75;;;4.10;;
43771;SDS011;59066;54.782;32.024;2023-05-10T15:36:43;5.47;;;3.25;;